createdAt,value
2019-05-10T00:01:42.650Z,80.36
2019-05-10T00:07:03.220Z,80.37
2019-05-10T00:12:05.684Z,80.26
2019-05-10T00:17:08.169Z,80.41
2019-05-10T00:22:10.625Z,80.43
2019-05-10T00:27:13.082Z,80.35
2019-05-10T00:32:15.547Z,80.50
2019-05-10T00:37:18.004Z,80.40
2019-05-10T00:42:20.470Z,80.49
2019-05-10T00:47:22.944Z,80.60
2019-05-10T00:52:25.435Z,80.67
2019-05-10T00:57:27.899Z,80.89
2019-05-10T01:02:30.358Z,80.78
2019-05-10T01:07:32.815Z,80.77
2019-05-10T01:12:35.260Z,80.83
2019-05-10T01:17:37.708Z,80.74
2019-05-10T01:22:40.169Z,80.41
2019-05-10T01:27:42.620Z,80.62
2019-05-10T01:32:45.064Z,80.23
2019-05-10T01:37:47.521Z,80.48
2019-05-10T01:42:49.963Z,80.35
2019-05-10T01:47:52.412Z,80.33
2019-05-10T01:52:54.855Z,80.54
2019-05-10T01:57:57.308Z,80.12
2019-05-10T02:02:59.764Z,80.31
2019-05-10T02:08:02.217Z,80.35
2019-05-10T02:13:04.649Z,80.42
2019-05-10T02:18:07.102Z,80.33
2019-05-10T02:23:09.562Z,80.46
2019-05-10T02:28:12.016Z,80.18
2019-05-10T02:33:14.473Z,80.24
2019-05-10T02:38:16.955Z,79.81
2019-05-10T02:43:19.393Z,80.18
2019-05-10T02:48:21.872Z,79.86
2019-05-10T02:53:24.333Z,80.23
2019-05-10T02:58:26.759Z,80.38
2019-05-10T03:03:29.217Z,80.42
2019-05-10T03:08:46.697Z,80.34
2019-05-10T03:13:49.146Z,80.41
2019-05-10T03:18:51.577Z,80.15
2019-05-10T03:23:54.123Z,80.06
2019-05-10T03:28:56.572Z,80.72
2019-05-10T03:33:59.020Z,80.47
2019-05-10T03:39:01.462Z,80.02
2019-05-10T03:44:03.930Z,80.75
2019-05-10T03:49:06.381Z,80.97
2019-05-10T03:54:08.832Z,80.88
2019-05-10T03:59:11.276Z,81.08
2019-05-10T04:04:13.749Z,80.74
2019-05-10T04:09:16.200Z,80.34
2019-05-10T04:14:18.654Z,80.13
2019-05-10T04:19:21.100Z,79.87
2019-05-10T04:24:23.546Z,79.70
2019-05-10T04:29:25.996Z,79.44
2019-05-10T04:34:28.446Z,79.43
2019-05-10T04:39:31.007Z,79.48
2019-05-10T04:44:33.454Z,79.31
2019-05-10T04:49:35.906Z,79.10
2019-05-10T04:54:38.353Z,78.70
2019-05-10T04:59:40.806Z,78.26
2019-05-10T05:04:43.249Z,75.96
2019-05-10T05:09:45.701Z,75.05
2019-05-10T05:14:48.150Z,74.60
2019-05-10T05:19:50.599Z,74.20
2019-05-10T05:24:55.083Z,74.24
2019-05-10T05:29:55.518Z,73.70
2019-05-10T05:34:57.962Z,72.57
2019-05-10T05:40:00.425Z,70.64
2019-05-10T05:45:02.906Z,71.28
2019-05-10T05:50:05.341Z,70.05
2019-05-10T05:55:07.793Z,70.02
2019-05-10T06:00:10.242Z,67.59
2019-05-10T06:05:12.743Z,65.51
2019-05-10T06:10:17.835Z,65.25
2019-05-10T06:15:17.596Z,62.26
2019-05-10T06:20:20.054Z,61.63
2019-05-10T06:25:37.902Z,62.17
2019-05-10T06:30:24.973Z,62.91
2019-05-10T06:35:27.442Z,61.60
2019-05-10T06:40:34.784Z,60.39
2019-05-10T06:45:32.356Z,61.73
2019-05-10T06:50:34.807Z,62.09
2019-05-10T06:55:37.268Z,60.94
2019-05-10T07:00:44.822Z,57.66
2019-05-10T07:05:42.195Z,58.91
2019-05-10T07:10:44.634Z,54.50
2019-05-10T07:15:47.080Z,51.26
2019-05-10T07:20:49.547Z,53.62
2019-05-10T07:25:52.009Z,54.83
2019-05-10T07:30:54.471Z,56.89
2019-05-10T07:35:56.917Z,58.25
2019-05-10T07:40:59.370Z,58.60
2019-05-10T07:46:06.483Z,56.49
2019-05-10T07:51:04.306Z,57.51
2019-05-10T07:56:08.016Z,56.76
2019-05-10T08:01:09.217Z,58.81
2019-05-10T08:06:15.079Z,59.73
2019-05-10T08:11:14.126Z,60.31
2019-05-10T08:16:21.828Z,58.74
2019-05-10T08:21:23.901Z,54.63
2019-05-10T08:26:24.616Z,55.10
2019-05-10T08:31:26.233Z,51.85
2019-05-10T08:36:26.468Z,51.71
2019-05-10T08:41:28.920Z,29.98
2019-05-10T08:46:40.188Z,33.90
2019-05-10T08:51:34.534Z,39.18
2019-05-10T08:56:36.302Z,25.72
2019-05-10T09:01:46.554Z,24.67
2019-05-10T09:06:42.036Z,15.69
2019-05-10T09:11:44.479Z,14.68
2019-05-10T09:16:56.282Z,10.56
2019-05-10T09:21:50.234Z,17.26
2019-05-10T09:26:52.774Z,27.25
2019-05-10T09:31:53.615Z,30.68
2019-05-10T09:36:56.066Z,30.44
2019-05-10T09:41:58.513Z,30.59
2019-05-10T09:47:01.963Z,27.15
2019-05-10T09:52:04.631Z,15.32
2019-05-10T09:57:08.191Z,9.33
2019-05-10T10:02:14.292Z,8.59
2019-05-10T10:07:10.830Z,22.61
2019-05-10T10:12:13.277Z,28.59
2019-05-10T10:17:18.390Z,31.58
2019-05-10T10:22:19.841Z,33.46
2019-05-10T10:27:20.676Z,36.89
2019-05-10T10:32:24.618Z,34.92
2019-05-10T10:37:28.997Z,33.21
2019-05-10T10:42:28.050Z,33.21
2019-05-10T10:47:32.269Z,30.73
2019-05-10T10:52:33.028Z,35.12
2019-05-10T10:57:37.391Z,38.98
2019-05-10T11:02:41.290Z,45.83
2019-05-10T11:07:44.309Z,48.68
2019-05-10T11:12:42.865Z,49.21
2019-05-10T11:17:50.468Z,48.61
2019-05-10T11:22:53.359Z,49.36
2019-05-10T11:27:58.370Z,51.04
2019-05-10T11:32:55.417Z,53.55
2019-05-10T11:37:57.892Z,56.75
2019-05-10T11:43:01.511Z,60.71
2019-05-10T11:48:02.870Z,60.46
2019-05-10T11:53:06.835Z,57.97
2019-05-10T11:58:10.018Z,56.80
2019-05-10T12:03:15.453Z,50.25
2019-05-10T12:08:13.281Z,46.16
2019-05-10T12:13:19.758Z,32.94
2019-05-10T12:18:26.344Z,20.03
2019-05-10T12:23:29.979Z,17.94
2019-05-10T12:28:28.493Z,16.60
2019-05-10T12:33:27.664Z,18.66
2019-05-10T12:38:29.679Z,17.42
2019-05-10T12:43:30.981Z,14.42
2019-05-10T12:48:35.415Z,16.98
2019-05-10T12:53:36.709Z,27.16
2019-05-10T12:58:37.711Z,32.90
2019-05-10T13:03:40.175Z,36.97
2019-05-10T13:08:42.643Z,39.85
2019-05-10T13:13:45.275Z,43.97
2019-05-10T13:18:51.766Z,46.25
2019-05-10T13:23:53.225Z,47.82
2019-05-10T13:28:52.636Z,48.58
2019-05-10T13:33:55.248Z,49.33
2019-05-10T13:38:57.714Z,50.42
2019-05-10T13:44:05.008Z,46.84
2019-05-10T13:49:02.647Z,45.63
2019-05-10T13:54:05.526Z,45.16
2019-05-10T13:59:15.364Z,45.96
2019-05-10T14:04:10.063Z,47.30
2019-05-10T14:09:12.521Z,49.43
2019-05-10T14:14:20.392Z,45.28
2019-05-10T14:19:22.993Z,46.09
2019-05-10T14:24:19.927Z,48.95
2019-05-10T14:29:32.955Z,48.63
2019-05-10T14:34:24.899Z,50.67
2019-05-10T14:39:27.360Z,50.92
2019-05-10T14:44:29.829Z,51.60
2019-05-10T14:49:32.278Z,51.81
2019-05-10T14:54:43.103Z,51.93
2019-05-10T14:59:37.222Z,51.20
2019-05-10T15:04:45.022Z,49.40
2019-05-10T15:09:42.124Z,50.01
2019-05-10T15:14:44.583Z,49.56
2019-05-10T15:19:56.537Z,51.44
2019-05-10T15:24:49.503Z,51.79
2019-05-10T15:29:51.981Z,51.25
2019-05-10T15:35:06.570Z,50.30
2019-05-10T15:40:00.597Z,50.33
2019-05-10T15:45:05.282Z,50.99
2019-05-10T15:50:01.945Z,50.89
2019-05-10T15:55:04.341Z,51.14
2019-05-10T16:00:06.779Z,50.50
2019-05-10T16:05:23.373Z,50.09
2019-05-10T16:10:11.722Z,51.22
2019-05-10T16:15:20.074Z,50.88
2019-05-10T16:20:16.780Z,52.11
2019-05-10T16:25:19.246Z,51.95
2019-05-10T16:30:21.752Z,51.63
2019-05-10T16:35:37.052Z,52.24
2019-05-10T16:40:26.723Z,53.41
2019-05-10T16:45:29.188Z,54.74
2019-05-10T16:50:33.766Z,54.10
2019-05-10T16:55:35.435Z,55.06
2019-05-10T17:00:40.626Z,56.79
2019-05-10T17:05:52.658Z,54.48
2019-05-10T17:10:41.568Z,56.16
2019-05-10T17:15:44.156Z,56.45
2019-05-10T17:20:51.003Z,55.58
2019-05-10T17:25:49.145Z,51.47
2019-05-10T17:30:51.602Z,49.56
2019-05-10T17:36:07.553Z,52.34
2019-05-10T17:40:56.528Z,54.57
2019-05-10T17:45:58.989Z,55.90
2019-05-10T17:51:01.486Z,56.47
2019-05-10T17:56:03.950Z,57.08
2019-05-10T18:01:06.397Z,58.16
2019-05-10T18:06:23.114Z,58.33
2019-05-10T18:11:11.336Z,58.88
2019-05-10T18:16:13.808Z,59.80
2019-05-10T18:21:21.841Z,60.35
2019-05-10T18:26:18.751Z,60.99
2019-05-10T18:31:21.265Z,61.34
2019-05-10T18:36:26.769Z,61.70
2019-05-10T18:41:26.235Z,62.08
2019-05-10T18:46:28.698Z,63.03
2019-05-10T18:51:34.405Z,63.21
2019-05-10T18:56:33.629Z,63.50
2019-05-10T19:01:38.817Z,64.45
2019-05-10T19:06:38.550Z,65.24
2019-05-10T19:11:41.263Z,65.44
2019-05-10T19:16:43.475Z,65.57
2019-05-10T19:21:45.942Z,66.17
2019-05-10T19:26:48.414Z,66.26
2019-05-10T19:31:50.895Z,66.50
2019-05-10T19:36:53.352Z,65.81
2019-05-10T19:42:03.027Z,65.67
2019-05-10T19:46:58.309Z,65.19
2019-05-10T19:52:00.767Z,65.26
2019-05-10T19:57:03.242Z,65.33
2019-05-10T20:02:05.730Z,65.83
2019-05-10T20:07:08.193Z,66.43
2019-05-10T20:12:13.252Z,66.85
2019-05-10T20:17:15.778Z,66.90
2019-05-10T20:22:18.187Z,67.05
2019-05-10T20:27:20.651Z,66.82
2019-05-10T20:32:23.133Z,67.54
2019-05-10T20:37:25.599Z,67.81
2019-05-10T20:42:28.053Z,68.29
2019-05-10T20:47:30.550Z,67.84
2019-05-10T20:52:33.006Z,68.02
2019-05-10T20:57:35.457Z,67.13
2019-05-10T21:02:37.957Z,66.95
2019-05-10T21:07:40.426Z,67.27
2019-05-10T21:12:42.884Z,66.93
2019-05-10T21:17:45.348Z,67.52
2019-05-10T21:22:47.829Z,67.90
2019-05-10T21:27:50.288Z,67.83
2019-05-10T21:32:52.742Z,68.61
2019-05-10T21:37:55.221Z,68.94
2019-05-10T21:42:57.688Z,69.14
2019-05-10T21:48:00.225Z,69.85
2019-05-10T21:53:02.632Z,70.03
2019-05-10T21:58:05.109Z,70.50
2019-05-10T22:03:07.591Z,71.12
2019-05-10T22:08:10.057Z,71.45
2019-05-10T22:13:12.554Z,71.94
2019-05-10T22:18:15.002Z,72.10
2019-05-10T22:23:17.459Z,72.39
2019-05-10T22:28:19.913Z,72.16
2019-05-10T22:33:22.430Z,72.05
2019-05-10T22:38:24.822Z,72.41
2019-05-10T22:43:27.274Z,72.79
2019-05-10T22:48:29.742Z,72.91
2019-05-10T22:53:32.196Z,72.84
2019-05-10T22:58:34.660Z,72.35
2019-05-10T23:03:37.137Z,72.70
2019-05-10T23:08:39.660Z,73.21
2019-05-10T23:13:42.084Z,74.03
2019-05-10T23:18:44.559Z,74.44
2019-05-10T23:23:47.009Z,74.93
2019-05-10T23:28:49.462Z,75.66
2019-05-10T23:33:51.908Z,76.28
2019-05-10T23:38:54.360Z,76.34
2019-05-10T23:43:56.821Z,76.66
2019-05-10T23:48:59.282Z,76.89
2019-05-10T23:54:01.731Z,76.82
2019-05-10T23:59:04.190Z,77.10
